createdAt,value
2018-02-09T00:02:14.775Z,58.25
2018-02-09T00:04:43.871Z,44.20
2018-02-09T00:07:12.889Z,55.47
2018-02-09T00:09:41.928Z,55.65
2018-02-09T00:12:10.981Z,49.67
2018-02-09T00:14:40.017Z,56.55
2018-02-09T00:17:09.070Z,57.85
2018-02-09T00:19:38.118Z,46.93
2018-02-09T00:22:07.165Z,56.95
2018-02-09T00:24:36.213Z,47.90
2018-02-09T00:27:10.611Z,55.35
2018-02-09T00:29:39.638Z,60.35
2018-02-09T00:32:08.681Z,47.57
2018-02-09T00:34:37.745Z,55.30
2018-02-09T00:37:06.788Z,57.13
2018-02-09T00:39:35.843Z,56.85
2018-02-09T00:42:04.890Z,48.93
2018-02-09T00:44:33.940Z,57.45
2018-02-09T00:47:03.011Z,59.13
2018-02-09T00:49:32.062Z,59.47
2018-02-09T00:52:02.081Z,59.58
2018-02-09T00:54:31.112Z,45.57
2018-02-09T00:57:00.208Z,55.67
2018-02-09T00:59:29.256Z,57.67
2018-02-09T01:01:58.373Z,50.33
2018-02-09T01:04:27.398Z,59.03
2018-02-09T01:06:56.440Z,59.25
2018-02-09T01:09:25.494Z,45.77
2018-02-09T01:11:54.537Z,57.25
2018-02-09T01:14:23.696Z,47.37
2018-02-09T01:16:52.709Z,55.75
2018-02-09T01:27:07.430Z,58.60
2018-02-09T01:29:41.145Z,47.30
2018-02-09T01:32:10.162Z,56.13
2018-02-09T01:34:39.194Z,57.42
2018-02-09T01:37:08.248Z,47.67
2018-02-09T01:39:37.295Z,58.63
2018-02-09T01:42:06.338Z,47.93
2018-02-09T01:44:35.383Z,53.67
2018-02-09T01:47:04.432Z,58.78
2018-02-09T01:49:33.494Z,57.72
2018-02-09T01:52:02.557Z,48.23
2018-02-09T01:54:31.601Z,56.28
2018-02-09T01:57:00.644Z,59.20
2018-02-09T01:59:29.710Z,46.07
2018-02-09T02:01:58.815Z,57.80
2018-02-09T02:04:27.861Z,61.45
2018-02-09T02:06:56.910Z,52.40
2018-02-09T02:09:25.954Z,57.50
2018-02-09T02:12:01.196Z,46.53
2018-02-09T02:14:30.217Z,57.05
2018-02-09T02:16:59.264Z,59.10
2018-02-09T02:19:28.314Z,48.97
2018-02-09T02:21:57.370Z,57.42
2018-02-09T02:24:26.408Z,56.80
2018-02-09T02:26:55.455Z,50.23
2018-02-09T02:29:24.517Z,58.05
2018-02-09T02:31:53.572Z,55.92
2018-02-09T02:34:22.654Z,46.63
2018-02-09T02:36:51.768Z,56.55
2018-02-09T02:39:20.805Z,48.17
2018-02-09T02:41:49.863Z,55.65
2018-02-09T02:44:18.910Z,58.40
2018-02-09T02:46:47.958Z,47.90
2018-02-09T02:49:17.015Z,55.97
2018-02-09T02:51:46.057Z,55.30
2018-02-09T02:54:16.126Z,47.33
2018-02-09T02:56:45.170Z,56.40
2018-02-09T03:01:49.389Z,55.45
2018-02-09T03:04:18.470Z,55.92
2018-02-09T03:06:47.517Z,45.83
2018-02-09T03:09:16.554Z,55.72
2018-02-09T03:11:45.603Z,46.20
2018-02-09T03:14:19.973Z,57.03
2018-02-09T03:16:49.685Z,45.60
2018-02-09T03:19:18.706Z,52.78
2018-02-09T03:21:47.746Z,54.17
2018-02-09T03:24:16.788Z,55.53
2018-02-09T03:26:45.829Z,44.70
2018-02-09T03:29:14.876Z,51.08
2018-02-09T03:31:43.918Z,54.03
2018-02-09T03:34:12.973Z,45.10
2018-02-09T03:36:42.016Z,54.22
2018-02-09T03:39:11.069Z,56.20
2018-02-09T03:41:40.109Z,43.90
2018-02-09T03:44:09.170Z,54.78
2018-02-09T03:46:38.214Z,57.70
2018-02-09T03:49:07.263Z,47.20
2018-02-09T03:51:36.332Z,57.55
2018-02-09T03:54:05.374Z,59.30
2018-02-09T03:56:34.430Z,46.23
2018-02-09T03:59:03.481Z,57.92
2018-02-09T04:01:32.522Z,59.13
2018-02-09T04:04:01.590Z,50.03
2018-02-09T04:06:30.640Z,55.75
2018-02-09T04:08:59.689Z,46.13
2018-02-09T04:11:28.856Z,55.40
2018-02-09T04:13:57.897Z,45.43
2018-02-09T04:16:26.964Z,55.35
2018-02-09T04:18:56.013Z,57.42
2018-02-09T04:21:25.060Z,48.97
2018-02-09T04:23:54.124Z,53.47
2018-02-09T04:26:23.178Z,55.63
2018-02-09T04:28:52.213Z,56.95
2018-02-09T04:31:21.314Z,45.40
2018-02-09T04:33:50.345Z,58.45
2018-02-09T04:36:19.405Z,56.10
2018-02-09T04:38:48.449Z,48.93
2018-02-09T04:41:17.500Z,57.90
2018-02-09T04:43:46.557Z,55.92
2018-02-09T04:46:15.856Z,47.20
2018-02-09T04:48:44.897Z,55.83
2018-02-09T04:51:13.959Z,56.47
2018-02-09T04:53:43.103Z,60.30
2018-02-09T04:56:12.178Z,58.87
2018-02-09T04:58:41.249Z,45.53
2018-02-09T05:01:10.445Z,56.72
2018-02-09T05:03:39.472Z,58.20
2018-02-09T05:06:08.525Z,48.70
2018-02-09T05:08:37.583Z,55.85
2018-02-09T05:11:06.650Z,57.35
2018-02-09T05:13:35.701Z,47.83
2018-02-09T05:16:04.758Z,56.55
2018-02-09T05:18:33.796Z,44.10
2018-02-09T05:21:02.862Z,54.60
2018-02-09T05:23:31.913Z,57.00
2018-02-09T05:26:00.974Z,49.33
2018-02-09T05:28:30.043Z,55.03
2018-02-09T05:30:59.122Z,45.70
2018-02-09T05:33:31.492Z,55.88
2018-02-09T05:36:00.704Z,57.58
2018-02-09T05:38:29.742Z,43.40
2018-02-09T05:41:03.478Z,54.63
2018-02-09T05:46:08.677Z,57.55
2018-02-09T05:48:38.689Z,44.53
2018-02-09T05:51:07.747Z,56.63
2018-02-09T05:56:12.094Z,57.53
2018-02-09T05:58:41.184Z,44.83
2018-02-09T06:01:10.185Z,56.47
2018-02-09T06:03:41.513Z,57.22
2018-02-09T06:06:10.558Z,46.27
2018-02-09T06:08:39.679Z,54.47
2018-02-09T06:11:08.709Z,56.42
2018-02-09T06:13:37.895Z,45.13
2018-02-09T06:16:06.938Z,56.90
2018-02-09T06:18:36.016Z,44.27
2018-02-09T06:21:05.053Z,52.55
2018-02-09T06:23:34.105Z,43.67
2018-02-09T06:26:03.242Z,54.60
2018-02-09T06:28:32.293Z,57.43
2018-02-09T06:31:01.329Z,56.78
2018-02-09T06:33:30.417Z,47.53
2018-02-09T06:35:59.468Z,55.33
2018-02-09T06:38:29.880Z,45.73
2018-02-09T06:40:58.932Z,57.17
2018-02-09T06:43:34.007Z,58.35
2018-02-09T06:46:03.344Z,43.77
2018-02-09T06:48:32.396Z,54.88
2018-02-09T06:51:01.447Z,59.38
2018-02-09T06:53:30.582Z,49.60
2018-02-09T06:56:00.526Z,54.95
2018-02-09T06:58:29.573Z,42.47
2018-02-09T07:01:02.229Z,54.17
2018-02-09T07:03:31.264Z,55.80
2018-02-09T07:06:07.453Z,47.60
2018-02-09T07:08:36.830Z,54.92
2018-02-09T07:11:05.882Z,57.15
2018-02-09T07:13:34.933Z,46.20
2018-02-09T07:16:06.774Z,55.38
2018-02-09T07:18:35.821Z,54.08
2018-02-09T07:21:04.883Z,55.23
2018-02-09T07:23:33.924Z,44.57
2018-02-09T07:26:02.974Z,56.92
2018-02-09T07:28:32.118Z,54.78
2018-02-09T07:31:01.163Z,45.63
2018-02-09T07:33:30.250Z,54.15
2018-02-09T07:38:35.028Z,55.40
2018-02-09T07:41:04.066Z,54.13
2018-02-09T07:43:34.049Z,44.87
2018-02-09T07:46:09.151Z,54.47
2018-02-09T07:48:38.177Z,53.67
2018-02-09T07:51:07.233Z,54.28
2018-02-09T07:53:36.286Z,41.37
2018-02-09T07:56:05.338Z,53.80
2018-02-09T07:58:34.397Z,54.28
2018-02-09T08:01:03.455Z,51.75
2018-02-09T08:03:32.550Z,43.23
2018-02-09T08:06:01.554Z,52.72
2018-02-09T08:08:30.609Z,44.60
2018-02-09T08:10:59.665Z,53.47
2018-02-09T08:13:28.713Z,44.23
2018-02-09T08:15:57.770Z,53.75
2018-02-09T08:18:26.805Z,51.97
2018-02-09T08:20:55.890Z,41.73
2018-02-09T08:23:28.128Z,51.55
2018-02-09T08:25:57.293Z,41.23
2018-02-09T08:28:26.339Z,52.03
2018-02-09T08:33:30.593Z,52.85
2018-02-09T08:35:59.652Z,43.57
2018-02-09T08:43:32.736Z,51.63
2018-02-09T08:46:01.781Z,42.33
2018-02-09T08:48:33.216Z,49.00
2018-02-09T08:51:02.558Z,39.70
2018-02-09T08:53:31.617Z,50.67
2018-02-09T08:56:00.687Z,41.53
2018-02-09T08:58:29.692Z,50.22
2018-02-09T09:00:58.744Z,52.20
2018-02-09T09:03:27.785Z,41.47
2018-02-09T09:05:56.825Z,51.47
2018-02-09T09:08:25.889Z,41.00
2018-02-09T09:10:54.929Z,37.13
2018-02-09T09:13:23.985Z,33.90
2018-02-09T09:15:53.029Z,28.60
2018-02-09T09:18:22.137Z,28.40
2018-02-09T09:20:56.248Z,29.37
2018-02-09T09:23:29.778Z,34.95
2018-02-09T09:25:58.793Z,41.00
2018-02-09T09:28:27.845Z,45.30
2018-02-09T09:31:02.235Z,37.20
2018-02-09T09:33:31.317Z,33.80
2018-02-09T09:36:00.348Z,36.17
2018-02-09T09:38:29.378Z,34.03
2018-02-09T09:40:58.422Z,31.98
2018-02-09T09:43:27.547Z,28.70
2018-02-09T09:45:56.565Z,35.63
2018-02-09T09:48:25.605Z,34.53
2018-02-09T09:50:54.701Z,31.60
2018-02-09T09:53:23.747Z,38.63
2018-02-09T09:55:52.788Z,30.23
2018-02-09T09:58:21.837Z,32.20
2018-02-09T10:00:52.274Z,28.23
2018-02-09T10:06:02.542Z,34.17
2018-02-09T10:08:31.859Z,35.88
2018-02-09T10:11:01.938Z,30.63
2018-02-09T10:13:30.989Z,28.33
2018-02-09T10:16:00.031Z,38.60
2018-02-09T10:18:29.078Z,31.80
2018-02-09T10:20:58.160Z,28.73
2018-02-09T10:26:03.462Z,32.40
2018-02-09T10:28:32.500Z,29.00
2018-02-09T10:31:01.553Z,33.90
2018-02-09T10:33:30.601Z,26.37
2018-02-09T10:35:59.640Z,33.97
2018-02-09T10:38:28.677Z,34.42
2018-02-09T10:40:57.725Z,28.53
2018-02-09T10:43:26.861Z,28.03
2018-02-09T10:45:55.879Z,26.60
2018-02-09T10:48:24.923Z,28.50
2018-02-09T10:50:53.988Z,30.10
2018-02-09T10:53:23.053Z,27.30
2018-02-09T10:55:52.081Z,26.90
2018-02-09T10:58:21.215Z,27.60
2018-02-09T11:01:01.882Z,32.75
2018-02-09T11:03:30.932Z,28.10
2018-02-09T11:08:39.325Z,34.65
2018-02-09T11:11:13.823Z,36.83
2018-02-09T11:13:42.866Z,32.60
2018-02-09T11:16:11.982Z,26.90
2018-02-09T11:18:41.024Z,28.70
2018-02-09T11:21:10.081Z,28.20
2018-02-09T11:23:39.154Z,33.92
2018-02-09T11:26:08.206Z,30.53
2018-02-09T11:28:37.241Z,35.15
2018-02-09T11:31:06.308Z,29.70
2018-02-09T11:33:35.337Z,37.35
2018-02-09T11:36:04.538Z,30.60
2018-02-09T11:38:33.574Z,30.83
2018-02-09T11:41:02.621Z,27.67
2018-02-09T11:43:31.712Z,29.50
2018-02-09T11:48:35.977Z,33.65
2018-02-09T11:51:05.021Z,31.60
2018-02-09T11:53:34.058Z,30.33
2018-02-09T11:56:03.130Z,32.23
2018-02-09T11:58:32.157Z,27.40
2018-02-09T12:01:01.203Z,27.10
2018-02-09T12:03:30.266Z,31.33
2018-02-09T12:05:59.347Z,28.07
2018-02-09T12:08:28.358Z,31.27
2018-02-09T12:10:58.365Z,35.88
2018-02-09T12:13:27.400Z,30.90
2018-02-09T12:15:56.463Z,31.00
2018-02-09T12:18:30.048Z,28.37
2018-02-09T12:20:59.070Z,31.30
2018-02-09T12:23:28.118Z,28.93
2018-02-09T12:25:57.159Z,30.37
2018-02-09T12:31:01.436Z,32.90
2018-02-09T12:33:30.501Z,34.07
2018-02-09T12:35:59.533Z,29.07
2018-02-09T12:38:28.573Z,29.50
2018-02-09T12:40:57.614Z,27.60
2018-02-09T12:43:26.654Z,35.53
2018-02-09T12:45:55.693Z,31.70
2018-02-09T12:48:24.761Z,37.78
2018-02-09T12:50:53.796Z,31.97
2018-02-09T12:53:22.874Z,31.30
2018-02-09T12:58:27.144Z,36.45
2018-02-09T13:00:56.639Z,28.03
2018-02-09T13:03:25.689Z,29.20
2018-02-09T13:05:54.729Z,36.35
2018-02-09T13:08:23.776Z,30.97
2018-02-09T13:10:52.928Z,32.03
2018-02-09T13:13:21.950Z,30.90
2018-02-09T13:15:51.013Z,37.80
2018-02-09T13:20:55.697Z,40.70
2018-02-09T13:26:02.918Z,38.28
2018-02-09T13:31:14.120Z,39.75
2018-02-09T13:33:43.183Z,40.53
2018-02-09T13:36:16.162Z,32.60
2018-02-09T13:38:45.274Z,38.75
2018-02-09T13:41:14.303Z,31.33
2018-02-09T13:43:43.370Z,33.60
2018-02-09T13:46:12.427Z,30.60
2018-02-09T13:48:41.466Z,38.45
2018-02-09T13:51:10.493Z,30.50
2018-02-09T13:53:39.553Z,34.50
2018-02-09T13:56:08.600Z,33.58
2018-02-09T13:58:37.653Z,30.30
2018-02-09T14:01:06.694Z,27.67
2018-02-09T14:03:35.969Z,34.72
2018-02-09T14:06:05.042Z,30.17
2018-02-09T14:08:34.085Z,28.40
2018-02-09T14:11:03.119Z,38.05
2018-02-09T14:13:32.163Z,32.90
2018-02-09T14:16:01.202Z,39.47
2018-02-09T14:18:30.256Z,32.50
2018-02-09T14:21:00.183Z,39.75
2018-02-09T14:23:29.248Z,35.90
2018-02-09T14:25:58.809Z,41.65
2018-02-09T14:28:27.917Z,41.47
2018-02-09T14:30:56.953Z,40.30
2018-02-09T14:33:25.997Z,36.37
2018-02-09T14:35:55.052Z,39.70
2018-02-09T14:38:24.171Z,35.80
2018-02-09T14:40:53.137Z,38.22
2018-02-09T14:43:24.219Z,31.57
2018-02-09T14:45:53.722Z,38.20
2018-02-09T14:48:22.763Z,34.60
2018-02-09T14:53:31.382Z,39.25
2018-02-09T14:58:40.427Z,38.20
2018-02-09T15:01:13.760Z,31.77
2018-02-09T15:03:42.796Z,43.87
2018-02-09T15:06:11.863Z,32.77
2018-02-09T15:08:40.901Z,40.45
2018-02-09T15:11:09.957Z,33.60
2018-02-09T15:13:39.005Z,39.67
2018-02-09T15:16:08.073Z,42.50
2018-02-09T15:18:37.104Z,36.93
2018-02-09T15:21:06.149Z,43.08
2018-02-09T15:23:35.205Z,37.13
2018-02-09T15:26:04.240Z,41.33
2018-02-09T15:28:33.623Z,40.42
2018-02-09T15:31:02.910Z,30.30
2018-02-09T15:33:31.949Z,38.60
2018-02-09T15:36:01.030Z,34.10
2018-02-09T15:38:30.106Z,43.90
2018-02-09T15:40:59.141Z,44.35
2018-02-09T15:43:28.195Z,35.97
2018-02-09T15:45:57.235Z,39.25
2018-02-09T15:48:26.280Z,34.77
2018-02-09T15:50:55.319Z,42.60
2018-02-09T15:53:24.352Z,33.43
2018-02-09T15:55:53.421Z,40.55
2018-02-09T15:58:22.461Z,40.95
2018-02-09T16:00:51.497Z,36.00
2018-02-09T16:03:20.538Z,38.88
2018-02-09T16:05:49.602Z,39.47
2018-02-09T16:08:19.473Z,36.27
2018-02-09T16:10:52.422Z,43.53
2018-02-09T16:13:21.472Z,42.15
2018-02-09T16:15:50.521Z,37.80
2018-02-09T16:18:20.121Z,59.10
2018-02-09T16:20:49.211Z,36.53
2018-02-09T16:23:19.349Z,89.95
2018-02-09T16:25:48.395Z,62.62
2018-02-09T16:28:18.547Z,55.47
2018-02-09T16:30:47.593Z,48.78
2018-02-09T16:33:17.818Z,45.93
2018-02-09T16:35:46.896Z,49.40
2018-02-09T16:38:16.132Z,46.13
2018-02-09T16:40:45.146Z,47.42
2018-02-09T16:43:14.198Z,35.47
2018-02-09T16:45:43.242Z,43.67
2018-02-09T16:50:48.442Z,43.78
2018-02-09T16:53:18.709Z,40.10
2018-02-09T16:55:47.753Z,34.63
2018-02-09T16:58:18.378Z,40.90
2018-02-09T17:00:47.398Z,43.30
2018-02-09T17:03:17.558Z,41.92
2018-02-09T17:05:46.672Z,34.23
2018-02-09T17:08:15.903Z,42.08
2018-02-09T17:10:45.010Z,57.95
2018-02-09T17:13:14.207Z,101.13
2018-02-09T17:15:43.238Z,43.78
2018-02-09T17:18:12.334Z,43.90
2018-02-09T17:20:41.381Z,44.35
2018-02-09T17:23:10.591Z,35.93
2018-02-09T17:25:39.609Z,42.50
2018-02-09T17:28:08.664Z,41.13
2018-02-09T17:30:37.705Z,36.90
2018-02-09T17:33:06.780Z,42.97
2018-02-09T17:38:11.076Z,41.72
2018-02-09T17:40:40.132Z,34.37
2018-02-09T17:43:09.218Z,42.17
2018-02-09T17:45:38.271Z,41.80
2018-02-09T17:48:07.306Z,34.83
2018-02-09T17:50:36.371Z,42.78
2018-02-09T17:53:05.437Z,46.15
2018-02-09T17:55:34.490Z,42.57
2018-02-09T17:58:03.560Z,50.35
2018-02-09T18:00:32.620Z,47.17
2018-02-09T18:05:37.814Z,53.95
2018-02-09T18:08:06.852Z,54.72
2018-02-09T18:10:35.907Z,40.07
2018-02-09T18:13:05.098Z,47.62
2018-02-09T18:15:34.150Z,48.60
2018-02-09T18:18:03.194Z,35.97
2018-02-09T18:20:32.286Z,44.63
2018-02-09T18:23:01.493Z,44.45
2018-02-09T18:25:30.539Z,36.07
2018-02-09T18:27:59.611Z,43.83
2018-02-09T18:30:28.710Z,45.38
2018-02-09T18:32:57.761Z,39.43
2018-02-09T18:35:26.817Z,43.85
2018-02-09T18:37:56.014Z,45.22
2018-02-09T18:40:25.119Z,38.00
2018-02-09T18:42:54.153Z,43.78
2018-02-09T18:45:23.206Z,46.55
2018-02-09T18:47:52.307Z,35.40
2018-02-09T18:50:21.369Z,46.33
2018-02-09T18:55:25.770Z,46.53
2018-02-09T18:57:54.865Z,39.17
2018-02-09T19:00:24.026Z,43.83
2018-02-09T19:02:56.252Z,36.33
2018-02-09T19:05:25.302Z,45.80
2018-02-09T19:07:55.691Z,45.07
2018-02-09T19:10:24.765Z,38.17
2018-02-09T19:12:53.858Z,42.38
2018-02-09T19:15:22.942Z,44.28
2018-02-09T19:17:58.393Z,35.60
2018-02-09T19:20:27.450Z,42.67
2018-02-09T19:22:56.498Z,36.13
2018-02-09T19:25:25.570Z,43.55
2018-02-09T19:27:54.698Z,45.60
2018-02-09T19:30:23.794Z,37.27
2018-02-09T19:32:52.841Z,45.40
2018-02-09T19:35:21.901Z,48.28
2018-02-09T19:37:50.957Z,38.10
2018-02-09T19:40:21.101Z,44.80
2018-02-09T19:42:50.215Z,45.07
2018-02-09T19:45:19.430Z,44.88
2018-02-09T19:47:48.485Z,38.73
2018-02-09T19:50:17.975Z,45.42
2018-02-09T19:55:24.306Z,46.30
2018-02-09T19:57:54.412Z,35.37
2018-02-09T20:00:23.800Z,47.00
2018-02-09T20:02:54.809Z,46.50
2018-02-09T20:05:29.573Z,34.63
2018-02-09T20:07:58.954Z,44.78
2018-02-09T20:10:28.054Z,46.10
2018-02-09T20:12:57.124Z,44.25
2018-02-09T20:15:27.439Z,38.67
2018-02-09T20:17:56.876Z,44.67
2018-02-09T20:20:25.951Z,45.30
2018-02-09T20:22:55.062Z,38.73
2018-02-09T20:25:24.777Z,45.72
2018-02-09T20:27:54.824Z,47.05
2018-02-09T20:30:24.031Z,36.93
2018-02-09T20:32:53.241Z,46.83
2018-02-09T20:35:22.367Z,45.25
2018-02-09T20:40:29.088Z,44.17
2018-02-09T20:43:00.268Z,36.97
2018-02-09T20:45:29.650Z,44.50
2018-02-09T20:48:06.245Z,45.22
2018-02-09T20:50:35.328Z,40.27
2018-02-09T20:53:21.912Z,46.50
2018-02-09T20:56:03.213Z,38.00
2018-02-09T20:58:32.298Z,47.20
2018-02-09T21:01:05.030Z,47.75
2018-02-09T21:03:34.120Z,47.30
2018-02-09T21:08:41.339Z,44.65
2018-02-09T21:11:22.267Z,45.97
2018-02-09T21:16:27.536Z,46.37
2018-02-09T21:21:34.698Z,46.15
2018-02-09T21:26:50.869Z,46.88
2018-02-09T21:29:23.682Z,37.90
2018-02-09T21:32:18.633Z,46.95
2018-02-09T21:35:02.593Z,49.25
2018-02-09T21:37:31.650Z,48.10
2018-02-09T21:40:00.897Z,45.72
2018-02-09T21:42:29.982Z,45.00
2018-02-09T21:45:13.084Z,45.83
2018-02-09T21:47:45.591Z,36.90
2018-02-09T21:55:40.209Z,46.85
2018-02-09T21:58:16.303Z,36.47
2018-02-09T22:00:52.868Z,43.63
2018-02-09T22:03:22.216Z,46.50
2018-02-09T22:05:56.330Z,38.53
2018-02-09T22:08:25.383Z,46.17
2018-02-09T22:13:29.578Z,44.35
2018-02-09T22:15:58.645Z,35.30
2018-02-09T22:18:27.689Z,42.55
2018-02-09T22:20:56.738Z,35.03
2018-02-09T22:23:25.778Z,41.42
2018-02-09T22:25:54.833Z,42.97
2018-02-09T22:28:25.803Z,36.17
2018-02-09T22:30:54.850Z,43.08
2018-02-09T22:33:23.894Z,42.75
2018-02-09T22:35:52.965Z,34.53
2018-02-09T22:38:22.026Z,41.45
2018-02-09T22:40:51.083Z,35.20
2018-02-09T22:43:20.120Z,40.83
2018-02-09T22:45:49.178Z,44.90
2018-02-09T22:48:18.234Z,36.13
2018-02-09T22:50:47.276Z,44.08
2018-02-09T22:53:16.337Z,45.00
2018-02-09T22:55:45.383Z,35.17
2018-02-09T22:58:14.435Z,42.62
2018-02-09T23:00:43.485Z,37.90
2018-02-09T23:03:12.554Z,44.88
2018-02-09T23:05:41.596Z,38.17
2018-02-09T23:08:12.105Z,42.67
2018-02-09T23:10:42.061Z,34.30
2018-02-09T23:13:12.409Z,43.92
2018-02-09T23:15:41.462Z,44.30
2018-02-09T23:18:11.918Z,43.65
2018-02-09T23:20:40.943Z,45.58
2018-02-09T23:23:11.256Z,46.60
2018-02-09T23:25:40.282Z,37.90
2018-02-09T23:28:09.606Z,43.83
2018-02-09T23:30:38.657Z,47.43
2018-02-09T23:33:07.705Z,45.80
2018-02-09T23:35:36.749Z,45.35
2018-02-09T23:38:05.804Z,39.07
2018-02-09T23:40:34.857Z,44.80
2018-02-09T23:43:03.913Z,37.20
2018-02-09T23:45:32.961Z,46.88
2018-02-09T23:48:02.056Z,45.58
2018-02-09T23:50:31.096Z,46.65
2018-02-09T23:53:00.162Z,36.50
2018-02-09T23:55:29.205Z,44.20
2018-02-09T23:57:58.265Z,43.78
